Time;durP1;ratioP1;P1;durP2;ratioP2;P2;SDS_P1;SDS_P2;PMS_P1;PMS_P2;Temp;Humidity;BMP_temperature;BMP_pressure;BME280_temperature;BME280_humidity;BME280_pressure;Samples;Min_cycle;Max_cycle;Signal;HPM_P1;HPM_P2
2023/01/19 00:02:23;;;;;;;20.05;13.45;;;2.70;99.90;;;;;;6187735;23;20016;-82
2023/01/19 00:04:48;;;;;;;16.90;13.32;;;2.60;99.90;;;;;;6212677;23;20009;-81
2023/01/19 00:07:14;;;;;;;21.38;14.30;;;2.60;99.90;;;;;;6212709;23;20066;-82
2023/01/19 00:09:40;;;;;;;24.05;14.25;;;2.50;99.90;;;;;;6186536;23;20051;-82
2023/01/19 00:12:06;;;;;;;15.75;12.35;;;2.70;99.90;;;;;;6187090;23;20008;-82
2023/01/19 00:14:32;;;;;;;21.27;13.52;;;2.60;99.90;;;;;;6212499;23;20036;-82
2023/01/19 00:16:57;;;;;;;19.27;13.50;;;2.60;99.90;;;;;;6187684;23;20020;-82
2023/01/19 00:19:23;;;;;;;19.33;13.27;;;2.60;99.90;;;;;;6214967;23;20068;-82
2023/01/19 00:21:48;;;;;;;17.85;12.82;;;2.60;99.90;;;;;;6188199;23;20083;-83
2023/01/19 00:24:14;;;;;;;21.50;14.07;;;2.70;99.90;;;;;;6212260;23;20015;-82
2023/01/19 00:26:41;;;;;;;21.63;13.73;;;2.70;99.90;;;;;;6187035;23;20012;-81
2023/01/19 00:29:08;;;;;;;21.35;11.93;;;2.70;99.90;;;;;;6187222;23;20009;-81
2023/01/19 00:31:34;;;;;;;20.52;12.38;;;2.70;99.90;;;;;;6212510;23;20130;-81
2023/01/19 00:34:00;;;;;;;16.50;10.60;;;2.80;99.90;;;;;;6213029;23;20091;-82
2023/01/19 00:36:25;;;;;;;16.70;11.55;;;2.80;99.90;;;;;;6213081;23;20016;-82
2023/01/19 00:38:51;;;;;;;19.17;9.43;;;2.80;99.90;;;;;;6212565;23;20012;-83
2023/01/19 00:41:17;;;;;;;17.38;8.85;;;3.70;99.90;;;;;;6187763;23;20379;-82
2023/01/19 00:43:42;;;;;;;13.98;8.38;;;3.50;99.90;;;;;;6212295;23;20457;-83
2023/01/19 00:46:08;;;;;;;17.08;9.20;;;2.80;99.90;;;;;;6213414;23;20012;-82
2023/01/19 00:48:34;;;;;;;14.43;8.30;;;2.90;99.90;;;;;;6214502;23;20027;-82
2023/01/19 00:50:59;;;;;;;13.27;8.25;;;3.00;99.90;;;;;;6214143;23;20483;-82
2023/01/19 00:53:26;;;;;;;13.07;7.82;;;3.60;99.90;;;;;;6211528;23;20056;-82
2023/01/19 00:55:53;;;;;;;16.40;8.38;;;2.80;99.90;;;;;;6212190;23;20013;-81
2023/01/19 00:58:21;;;;;;;13.93;7.80;;;2.90;99.90;;;;;;6212266;23;20339;-82
2023/01/19 01:00:47;;;;;;;13.57;7.40;;;2.90;99.90;;;;;;6213806;23;20063;-82
2023/01/19 01:03:12;;;;;;;14.32;7.45;;;2.90;99.90;;;;;;6211891;23;20024;-82
2023/01/19 01:05:41;;;;;;;11.32;6.63;;;2.90;99.90;;;;;;6212966;23;20458;-82
2023/01/19 01:08:06;;;;;;;15.18;7.53;;;2.90;99.90;;;;;;6215721;23;20009;-82
2023/01/19 01:10:32;;;;;;;14.73;7.03;;;2.90;99.90;;;;;;6213665;23;20055;-81
2023/01/19 01:12:58;;;;;;;17.15;7.28;;;3.50;99.90;;;;;;6214023;23;20054;-81
2023/01/19 01:15:25;;;;;;;8.45;5.80;;;2.90;99.90;;;;;;6215816;23;20016;-81
2023/01/19 01:17:51;;;;;;;10.48;5.25;;;3.00;99.90;;;;;;6215762;23;20186;-82
2023/01/19 01:20:21;;;;;;;8.05;5.60;;;2.90;99.90;;;;;;6188688;23;20017;-81
2023/01/19 01:22:50;;;;;;;6.28;5.65;;;2.90;99.90;;;;;;6215828;23;20015;-81
2023/01/19 01:25:19;;;;;;;10.52;7.45;;;3.10;99.90;;;;;;6213990;23;20005;-81
2023/01/19 01:27:44;;;;;;;9.38;8.20;;;2.80;99.90;;;;;;6239421;23;20009;-82
2023/01/19 01:30:13;;;;;;;11.13;8.85;;;2.70;99.90;;;;;;6213942;23;20017;-82
2023/01/19 01:32:38;;;;;;;9.68;8.25;;;2.70;99.90;;;;;;6214522;23;20435;-82
2023/01/19 01:35:05;;;;;;;10.07;8.48;;;2.70;99.90;;;;;;6215323;23;20024;-81
2023/01/19 01:37:30;;;;;;;12.52;9.18;;;2.60;99.90;;;;;;6215600;23;20043;-81
2023/01/19 01:39:56;;;;;;;12.13;9.57;;;3.20;99.90;;;;;;6215083;23;20059;-82
2023/01/19 01:42:27;;;;;;;12.43;8.98;;;2.80;99.90;;;;;;6214955;23;20487;-81
2023/01/19 01:44:56;;;;;;;11.00;8.40;;;2.60;99.90;;;;;;6188607;23;20023;-81
2023/01/19 01:47:37;;;;;;;9.50;7.63;;;2.60;99.90;;;;;;6213582;23;20004;-81
2023/01/19 01:50:13;;;;;;;14.10;8.00;;;2.50;99.90;;;;;;6213485;23;20051;-82
2023/01/19 01:52:47;;;;;;;19.58;8.07;;;2.60;99.90;;;;;;6213646;23;20016;-82
2023/01/19 01:55:14;;;;;;;11.43;8.75;;;2.50;99.90;;;;;;6213999;23;20013;-82
2023/01/19 01:57:52;;;;;;;12.27;8.95;;;2.40;99.90;;;;;;6213557;23;20020;-82
2023/01/19 02:00:18;;;;;;;13.15;9.07;;;2.50;99.90;;;;;;6214192;23;20013;-82
2023/01/19 02:02:49;;;;;;;12.80;8.65;;;2.40;99.90;;;;;;6215635;23;20025;-82
2023/01/19 02:05:28;;;;;;;13.18;9.48;;;2.40;99.90;;;;;;6215386;23;20024;-81
2023/01/19 02:13:54;;;;;;;14.77;10.73;;;2.50;99.90;;;;;;6215860;23;20052;-82
2023/01/19 02:16:23;;;;;;;18.27;11.40;;;2.40;99.90;;;;;;6213845;23;20017;-82
2023/01/19 02:18:48;;;;;;;17.10;11.45;;;2.40;99.90;;;;;;6215784;23;20008;-82
2023/01/19 02:21:22;;;;;;;18.23;12.30;;;2.50;99.90;;;;;;6216651;23;20158;-82
2023/01/19 02:23:53;;;;;;;20.63;12.05;;;2.40;99.90;;;;;;6213744;23;20313;-81
2023/01/19 02:26:25;;;;;;;20.02;12.38;;;2.40;99.90;;;;;;6189268;23;20008;-82
2023/01/19 02:28:58;;;;;;;17.73;12.13;;;2.50;99.90;;;;;;6213957;23;20009;-81
2023/01/19 02:31:25;;;;;;;18.80;12.38;;;2.40;99.90;;;;;;6215928;23;20083;-82
2023/01/19 02:33:51;;;;;;;18.30;13.38;;;2.40;99.90;;;;;;6213755;23;20016;-82
2023/01/19 02:36:21;;;;;;;18.02;13.15;;;2.40;99.90;;;;;;6215300;23;20012;-82
2023/01/19 02:38:48;;;;;;;20.27;13.55;;;2.50;99.90;;;;;;6188760;23;20013;-81
2023/01/19 02:41:19;;;;;;;18.80;12.50;;;2.50;99.90;;;;;;6213575;23;20047;-82
2023/01/19 02:43:47;;;;;;;23.25;13.63;;;3.10;99.90;;;;;;6215296;23;20044;-82
2023/01/19 02:46:14;;;;;;;20.17;13.43;;;2.50;99.90;;;;;;6213578;23;20013;-82
2023/01/19 02:48:40;;;;;;;18.92;12.63;;;2.80;99.90;;;;;;6212792;23;20087;-81
2023/01/19 02:51:19;;;;;;;19.08;12.50;;;2.50;99.90;;;;;;6215112;23;20037;-81
2023/01/19 02:54:00;;;;;;;20.52;13.90;;;2.50;99.90;;;;;;6238633;23;20059;-81
2023/01/19 02:56:49;;;;;;;20.80;13.20;;;2.50;99.90;;;;;;6215495;23;20020;-82
2023/01/19 02:59:19;;;;;;;21.85;14.18;;;2.50;99.90;;;;;;6213284;23;20016;-81
2023/01/19 03:01:57;;;;;;;21.70;15.10;;;2.50;99.90;;;;;;6214171;23;20016;-82
2023/01/19 03:04:41;;;;;;;24.13;14.60;;;2.50;99.90;;;;;;6212973;23;20012;-81
2023/01/19 03:07:13;;;;;;;22.55;15.10;;;2.50;99.90;;;;;;6239830;23;20004;-82
2023/01/19 03:09:47;;;;;;;25.73;16.25;;;2.60;99.90;;;;;;6215088;23;20384;-82
2023/01/19 03:12:32;;;;;;;24.77;17.40;;;2.60;99.90;;;;;;6214707;23;20016;-82
2023/01/19 03:15:06;;;;;;;25.75;18.15;;;2.60;99.90;;;;;;6214375;23;20071;-82
2023/01/19 03:17:34;;;;;;;26.70;18.30;;;2.60;99.90;;;;;;6211646;23;20023;-81
2023/01/19 03:20:02;;;;;;;29.95;18.20;;;2.60;99.90;;;;;;6212748;23;20017;-81
2023/01/19 03:22:28;;;;;;;23.02;16.27;;;2.70;99.90;;;;;;6212433;23;20016;-82
2023/01/19 03:24:59;;;;;;;29.00;18.25;;;2.60;99.90;;;;;;6214251;23;20084;-82
2023/01/19 03:27:28;;;;;;;32.45;19.00;;;3.50;99.90;;;;;;6186729;23;20070;-81
2023/01/19 03:30:00;;;;;;;28.45;18.25;;;2.70;99.90;;;;;;6211891;23;20012;-82
2023/01/19 03:32:30;;;;;;;23.95;16.52;;;2.70;99.90;;;;;;6211548;23;20021;-82
2023/01/19 03:35:01;;;;;;;24.08;15.80;;;2.70;99.90;;;;;;6212621;23;20016;-81
2023/01/19 03:37:29;;;;;;;29.25;18.05;;;2.70;99.90;;;;;;6214356;23;20047;-81
2023/01/19 03:39:55;;;;;;;29.35;17.33;;;2.70;99.90;;;;;;6212581;23;20058;-82
2023/01/19 03:42:22;;;;;;;23.27;15.85;;;3.70;99.90;;;;;;6211709;23;20016;-81
2023/01/19 03:44:51;;;;;;;25.00;17.10;;;3.40;99.90;;;;;;6212173;23;20023;-82
2023/01/19 03:47:18;;;;;;;25.42;16.85;;;2.70;99.90;;;;;;6213369;23;20005;-82
2023/01/19 03:49:46;;;;;;;25.80;16.23;;;2.70;99.90;;;;;;6214111;23;20308;-83
2023/01/19 03:52:12;;;;;;;25.30;16.25;;;3.20;99.90;;;;;;6212669;23;20067;-82
2023/01/19 03:54:39;;;;;;;24.73;15.93;;;2.30;99.90;;;;;;6215100;23;20091;-82
2023/01/19 03:57:05;;;;;;;24.90;14.93;;;2.60;99.90;;;;;;6213170;23;20016;-82
2023/01/19 03:59:31;;;;;;;22.77;15.52;;;2.60;99.90;;;;;;6211902;23;20455;-81
2023/01/19 04:01:56;;;;;;;22.40;14.35;;;2.50;99.90;;;;;;6213736;23;20009;-81
2023/01/19 04:04:24;;;;;;;23.50;13.50;;;2.50;99.90;;;;;;6212691;23;20036;-82
2023/01/19 04:06:50;;;;;;;24.40;14.13;;;2.40;99.90;;;;;;6212496;23;20012;-82
2023/01/19 04:09:15;;;;;;;25.70;15.18;;;2.60;99.90;;;;;;6211933;23;20009;-81
2023/01/19 04:11:41;;;;;;;23.13;14.68;;;2.50;99.90;;;;;;6212431;23;20027;-82
2023/01/19 04:14:07;;;;;;;18.25;13.10;;;2.50;99.90;;;;;;6212083;23;20039;-82
2023/01/19 04:16:32;;;;;;;21.65;13.82;;;2.50;99.90;;;;;;6211160;23;20044;-82
2023/01/19 04:18:58;;;;;;;23.50;14.32;;;2.60;99.90;;;;;;6186725;23;20020;-82
2023/01/19 04:21:24;;;;;;;26.13;15.65;;;3.40;99.90;;;;;;6211918;23;20020;-82
2023/01/19 04:23:49;;;;;;;24.40;14.85;;;2.60;99.90;;;;;;6186757;23;20103;-82
2023/01/19 04:26:15;;;;;;;22.40;13.90;;;3.00;99.90;;;;;;6237493;23;20022;-81
2023/01/19 04:28:41;;;;;;;22.40;14.32;;;2.60;99.90;;;;;;6211240;23;20024;-82
2023/01/19 04:31:07;;;;;;;22.23;13.27;;;2.60;99.90;;;;;;6212040;23;20068;-82
2023/01/19 04:33:33;;;;;;;27.15;14.05;;;2.50;99.90;;;;;;6213482;23;20055;-81
2023/01/19 04:35:59;;;;;;;18.67;13.15;;;2.50;99.90;;;;;;6214045;23;20012;-81
2023/01/19 04:38:25;;;;;;;27.33;14.45;;;2.60;99.90;;;;;;6212044;23;20023;-82
2023/01/19 04:40:52;;;;;;;32.88;15.20;;;2.60;99.90;;;;;;6215923;23;20019;-82
2023/01/19 04:43:19;;;;;;;23.05;13.70;;;2.80;99.90;;;;;;6213265;23;20024;-81
2023/01/19 04:45:46;;;;;;;25.42;14.18;;;2.90;99.90;;;;;;6213940;23;20016;-82
2023/01/19 04:48:13;;;;;;;20.60;12.80;;;2.60;99.90;;;;;;6213895;23;20012;-82
2023/01/19 04:50:39;;;;;;;24.13;13.50;;;2.60;99.90;;;;;;6213804;23;20511;-81
2023/01/19 04:53:04;;;;;;;22.20;13.07;;;2.60;99.90;;;;;;6213924;23;20044;-82
2023/01/19 04:55:30;;;;;;;21.77;12.50;;;2.60;99.90;;;;;;6213673;23;20023;-82
2023/01/19 04:57:56;;;;;;;21.10;13.05;;;3.30;99.90;;;;;;6212885;23;20020;-81
2023/01/19 05:00:22;;;;;;;21.67;12.93;;;2.60;99.90;;;;;;6213714;23;20008;-81
2023/01/19 05:02:48;;;;;;;25.30;13.38;;;2.60;99.90;;;;;;6213532;23;20092;-82
2023/01/19 05:05:14;;;;;;;27.02;12.48;;;2.60;99.90;;;;;;6213468;23;20393;-82
2023/01/19 05:07:39;;;;;;;29.67;14.23;;;2.60;99.90;;;;;;6213103;23;20044;-82
2023/01/19 05:10:05;;;;;;;24.88;13.18;;;2.60;99.90;;;;;;6214641;23;20012;-82
2023/01/19 05:12:32;;;;;;;31.25;13.68;;;2.60;99.90;;;;;;6214306;23;20027;-82
2023/01/19 05:14:58;;;;;;;22.60;12.35;;;2.50;99.90;;;;;;6238794;23;20066;-82
2023/01/19 05:17:23;;;;;;;18.35;10.75;;;2.50;99.90;;;;;;6214612;23;20052;-82
2023/01/19 05:19:49;;;;;;;22.83;11.27;;;2.50;99.90;;;;;;6215160;23;20015;-82
2023/01/19 05:22:15;;;;;;;17.52;10.68;;;2.50;99.90;;;;;;6213451;23;20078;-82
2023/01/19 05:24:41;;;;;;;23.77;11.95;;;2.50;99.90;;;;;;6214741;23;20015;-83
2023/01/19 05:27:06;;;;;;;20.33;10.75;;;2.90;99.90;;;;;;6214841;23;20083;-83
2023/01/19 05:29:33;;;;;;;22.48;11.00;;;3.70;99.90;;;;;;6213047;23;20044;-82
2023/01/19 05:31:59;;;;;;;21.50;9.85;;;3.40;99.90;;;;;;6215398;23;20012;-83
2023/01/19 05:34:24;;;;;;;20.48;9.82;;;2.50;99.90;;;;;;6213524;23;20016;-81
2023/01/19 05:36:50;;;;;;;19.55;9.32;;;3.60;99.90;;;;;;6213783;23;20063;-82
2023/01/19 05:39:16;;;;;;;21.67;10.07;;;3.40;99.90;;;;;;6213487;23;20012;-81
2023/01/19 05:41:44;;;;;;;25.17;10.43;;;2.40;99.90;;;;;;6212963;23;20095;-80
2023/01/19 05:44:10;;;;;;;21.50;7.97;;;2.40;99.90;;;;;;6188307;23;20340;-81
2023/01/19 05:46:36;;;;;;;18.27;8.57;;;2.30;99.90;;;;;;6216547;23;20065;-81
2023/01/19 05:49:03;;;;;;;28.42;10.30;;;3.20;99.90;;;;;;6189599;23;20023;-81
2023/01/19 05:51:34;;;;;;;18.23;8.07;;;2.30;99.90;;;;;;6189769;23;20040;-82
2023/01/19 05:54:04;;;;;;;15.18;7.80;;;3.40;99.90;;;;;;6216067;23;20012;-80
2023/01/19 05:56:30;;;;;;;16.17;7.53;;;2.30;99.90;;;;;;6214160;23;20443;-81
2023/01/19 05:58:55;;;;;;;21.40;7.68;;;2.30;99.90;;;;;;6188198;23;20020;-82
2023/01/19 06:01:21;;;;;;;18.35;7.38;;;2.30;99.90;;;;;;6188291;23;20020;-82
2023/01/19 06:03:47;;;;;;;18.45;6.65;;;2.70;99.90;;;;;;6188315;23;20016;-82
2023/01/19 06:06:14;;;;;;;19.65;6.88;;;2.40;99.90;;;;;;6188525;23;20013;-81
2023/01/19 06:08:40;;;;;;;14.75;5.32;;;2.40;99.90;;;;;;6188427;23;20019;-82
2023/01/19 06:11:06;;;;;;;7.78;3.33;;;3.00;99.90;;;;;;6187785;23;20008;-81
2023/01/19 06:13:32;;;;;;;9.32;3.13;;;2.40;99.90;;;;;;6215111;23;20017;-82
2023/01/19 06:15:59;;;;;;;8.80;2.47;;;2.40;99.90;;;;;;6187848;23;20021;-79
2023/01/19 06:18:24;;;;;;;8.82;2.75;;;2.50;99.90;;;;;;6187797;23;20443;-79
2023/01/19 06:20:51;;;;;;;5.35;1.98;;;1.80;99.90;;;;;;6213290;23;20017;-82
2023/01/19 06:23:17;;;;;;;10.35;2.33;;;2.60;99.90;;;;;;6215058;23;20304;-82
2023/01/19 06:25:42;;;;;;;8.05;1.65;;;2.60;99.90;;;;;;6214147;23;20023;-82
2023/01/19 06:28:08;;;;;;;13.07;2.25;;;3.00;99.90;;;;;;6187975;23;20004;-82
2023/01/19 06:30:33;;;;;;;6.38;1.85;;;2.60;99.90;;;;;;6214819;23;20005;-82
2023/01/19 06:32:59;;;;;;;17.23;2.97;;;2.60;99.90;;;;;;6187925;23;20027;-82
2023/01/19 06:35:25;;;;;;;9.57;2.20;;;3.40;99.90;;;;;;6214813;23;20024;-82
2023/01/19 06:37:52;;;;;;;13.55;2.72;;;2.60;99.90;;;;;;6214695;23;20019;-83
2023/01/19 06:40:17;;;;;;;12.48;2.55;;;2.60;99.90;;;;;;6187267;23;20273;-82
2023/01/19 06:42:43;;;;;;;10.95;2.20;;;2.60;99.90;;;;;;6188111;23;20051;-81
2023/01/19 06:45:09;;;;;;;11.38;2.45;;;2.60;99.90;;;;;;6187796;23;20506;-82
2023/01/19 06:47:35;;;;;;;9.60;2.40;;;2.60;99.90;;;;;;6215010;23;20484;-81
2023/01/19 06:50:01;;;;;;;8.35;2.00;;;2.60;99.90;;;;;;6187822;23;20020;-82
2023/01/19 06:52:27;;;;;;;9.68;2.10;;;2.60;99.90;;;;;;6215038;23;20335;-82
2023/01/19 06:54:53;;;;;;;14.40;2.55;;;2.60;99.90;;;;;;6187236;23;20379;-81
2023/01/19 06:57:18;;;;;;;9.52;1.95;;;2.60;99.90;;;;;;6187789;23;20062;-81
2023/01/19 06:59:44;;;;;;;14.25;2.22;;;2.60;99.90;;;;;;6188164;23;20324;-82
2023/01/19 07:02:10;;;;;;;10.23;2.00;;;2.50;99.90;;;;;;6187416;23;20009;-82
2023/01/19 07:04:36;;;;;;;15.68;2.60;;;2.50;99.90;;;;;;6214322;23;20017;-82
2023/01/19 07:07:01;;;;;;;13.18;2.17;;;2.40;99.90;;;;;;6188022;23;20491;-82
2023/01/19 07:09:27;;;;;;;5.38;1.77;;;2.40;99.90;;;;;;6187377;23;20095;-81
2023/01/19 07:11:53;;;;;;;8.75;2.50;;;2.70;99.90;;;;;;6188097;23;20017;-82
2023/01/19 07:14:19;;;;;;;11.20;2.67;;;2.30;99.90;;;;;;6215198;23;20506;-83
2023/01/19 07:16:45;;;;;;;16.17;2.97;;;2.30;99.90;;;;;;6213830;23;20463;-83
2023/01/19 07:19:13;;;;;;;14.13;3.10;;;2.30;99.90;;;;;;6213948;23;20009;-83
2023/01/19 07:21:38;;;;;;;16.55;3.10;;;2.30;99.90;;;;;;6186950;23;20088;-82
2023/01/19 07:24:04;;;;;;;13.30;2.75;;;2.80;99.90;;;;;;6186262;23;20114;-83
2023/01/19 07:26:30;;;;;;;13.50;3.08;;;2.40;99.90;;;;;;6213600;23;20305;-83
2023/01/19 07:28:55;;;;;;;12.35;2.60;;;2.70;99.90;;;;;;6213746;23;20079;-83
2023/01/19 07:31:21;;;;;;;13.07;2.92;;;2.40;99.90;;;;;;6186823;23;20016;-83
2023/01/19 07:33:47;;;;;;;13.68;2.72;;;2.40;99.90;;;;;;6186859;23;20347;-83
2023/01/19 07:36:12;;;;;;;16.48;2.83;;;2.50;99.90;;;;;;6161742;23;20012;-83
2023/01/19 07:38:38;;;;;;;21.67;3.42;;;2.60;99.90;;;;;;6185932;23;20040;-83
2023/01/19 07:41:06;;;;;;;23.35;3.15;;;2.60;99.90;;;;;;6213626;23;20074;-82
2023/01/19 07:43:33;;;;;;;21.20;3.78;;;2.60;99.90;;;;;;6186367;23;20019;-83
2023/01/19 07:46:00;;;;;;;17.65;3.25;;;2.60;99.90;;;;;;6213651;23;20015;-83
2023/01/19 07:48:26;;;;;;;25.50;3.83;;;2.60;99.90;;;;;;6186540;23;20004;-82
2023/01/19 07:50:52;;;;;;;18.52;3.67;;;2.60;99.90;;;;;;6187071;23;20083;-83
2023/01/19 07:53:18;;;;;;;22.88;3.40;;;2.60;99.90;;;;;;6186084;23;20055;-83
2023/01/19 07:55:44;;;;;;;26.63;3.63;;;2.60;99.90;;;;;;6187068;23;20447;-82
2023/01/19 07:58:10;;;;;;;21.00;3.22;;;2.70;99.90;;;;;;6213283;23;20023;-83
2023/01/19 08:00:37;;;;;;;17.90;3.30;;;2.60;99.90;;;;;;6186580;23;20016;-83
2023/01/19 08:03:04;;;;;;;23.50;3.33;;;2.70;99.90;;;;;;6213465;23;20095;-82
2023/01/19 08:05:31;;;;;;;26.08;4.07;;;2.80;99.90;;;;;;6161790;23;20008;-83
2023/01/19 08:07:57;;;;;;;30.60;4.32;;;2.80;99.90;;;;;;6161002;23;20446;-83
2023/01/19 08:10:25;;;;;;;27.00;3.95;;;2.90;99.90;;;;;;6213233;23;20009;-82
2023/01/19 08:12:52;;;;;;;16.75;3.58;;;3.00;99.90;;;;;;6186424;23;20009;-82
2023/01/19 08:15:22;;;;;;;24.70;3.88;;;3.90;99.90;;;;;;6186119;23;20020;-83
2023/01/19 08:17:58;;;;;;;16.88;3.50;;;3.20;99.90;;;;;;6213572;23;20008;-83
2023/01/19 08:20:26;;;;;;;19.20;3.78;;;3.70;99.90;;;;;;6186308;23;20051;-82
2023/01/19 08:22:58;;;;;;;16.05;3.15;;;3.30;99.90;;;;;;6212616;23;20215;-82
2023/01/19 08:25:25;;;;;;;19.95;3.53;;;3.30;99.90;;;;;;6211823;23;20013;-83
2023/01/19 08:27:53;;;;;;;10.82;2.17;;;3.30;99.90;;;;;;6186204;23;20071;-82
2023/01/19 08:30:19;;;;;;;15.90;3.03;;;3.40;99.90;;;;;;6213050;23;20013;-82
2023/01/19 08:32:44;;;;;;;19.48;3.15;;;3.40;99.90;;;;;;6213173;23;20016;-83
2023/01/19 08:35:10;;;;;;;14.98;2.55;;;3.40;99.90;;;;;;6160804;23;20013;-83
2023/01/19 08:37:36;;;;;;;15.80;2.95;;;3.40;99.90;;;;;;6186479;23;20099;-82
2023/01/19 08:40:02;;;;;;;18.60;3.05;;;3.40;99.90;;;;;;6213119;23;20247;-83
2023/01/19 08:42:28;;;;;;;16.65;2.80;;;3.50;99.90;;;;;;6212753;23;20019;-82
2023/01/19 08:44:54;;;;;;;17.80;2.92;;;3.40;99.90;;;;;;6213312;23;20016;-83
2023/01/19 08:47:19;;;;;;;11.13;2.75;;;3.50;99.90;;;;;;6213105;23;20011;-83
2023/01/19 08:49:45;;;;;;;20.70;3.22;;;3.50;99.90;;;;;;6235982;23;20066;-82
2023/01/19 08:52:10;;;;;;;20.85;3.33;;;4.10;99.90;;;;;;6211466;23;20016;-82
2023/01/19 08:54:36;;;;;;;19.05;3.05;;;3.60;99.90;;;;;;6211320;23;20023;-82
2023/01/19 08:57:02;;;;;;;22.08;3.58;;;3.50;99.90;;;;;;6213230;23;20017;-83
2023/01/19 08:59:27;;;;;;;24.67;4.68;;;3.50;99.90;;;;;;6211252;23;20084;-83
2023/01/19 09:01:53;;;;;;;24.90;3.33;;;3.50;99.90;;;;;;6211211;23;20465;-83
2023/01/19 09:04:19;;;;;;;24.55;4.45;;;3.50;99.90;;;;;;6212434;23;20009;-82
2023/01/19 09:06:44;;;;;;;23.88;5.10;;;3.50;99.90;;;;;;6213454;23;20098;-83
2023/01/19 09:09:10;;;;;;;32.40;5.32;;;3.40;99.90;;;;;;6211250;23;20020;-83
2023/01/19 09:11:35;;;;;;;24.20;4.85;;;3.40;99.90;;;;;;6211330;23;20009;-82
2023/01/19 09:14:02;;;;;;;21.55;4.78;;;3.40;99.90;;;;;;6211145;23;20020;-83
2023/01/19 09:16:28;;;;;;;30.40;4.95;;;3.60;99.90;;;;;;6210983;23;20016;-83
2023/01/19 09:18:53;;;;;;;23.63;3.85;;;3.40;99.90;;;;;;6212504;23;20005;-83
2023/01/19 09:21:19;;;;;;;22.92;3.72;;;3.30;99.90;;;;;;6212823;23;20018;-83
2023/01/19 09:23:45;;;;;;;21.10;4.50;;;3.30;99.90;;;;;;6212898;23;20111;-83
2023/01/19 09:26:10;;;;;;;27.10;4.80;;;3.20;99.90;;;;;;6213588;23;20103;-83
2023/01/19 09:28:37;;;;;;;34.25;4.60;;;4.00;99.90;;;;;;6212872;23;20069;-83
2023/01/19 09:31:07;;;;;;;26.33;3.90;;;3.20;99.90;;;;;;6212785;23;20059;-83
2023/01/19 09:33:33;;;;;;;27.40;5.00;;;4.30;99.90;;;;;;6214472;23;20019;-82
2023/01/19 09:36:00;;;;;;;33.25;4.85;;;4.20;99.90;;;;;;6212721;23;20347;-82
2023/01/19 09:38:30;;;;;;;22.13;4.35;;;3.20;99.90;;;;;;6212923;23;20440;-82
2023/01/19 09:40:57;;;;;;;23.02;4.07;;;4.30;99.90;;;;;;6212839;23;20023;-82
2023/01/19 09:43:47;;;;;;;26.63;4.32;;;3.70;99.90;;;;;;6212340;23;20068;-83
2023/01/19 09:46:19;;;;;;;34.75;4.93;;;3.10;99.90;;;;;;6212824;23;20351;-83
2023/01/19 09:48:50;;;;;;;26.92;4.35;;;3.80;99.90;;;;;;6212289;23;20539;-82
2023/01/19 09:51:17;;;;;;;29.42;4.32;;;3.10;99.90;;;;;;6214809;23;20013;-82
2023/01/19 09:53:50;;;;;;;28.60;4.70;;;3.00;99.90;;;;;;6214567;23;20020;-83
2023/01/19 09:56:19;;;;;;;24.73;4.10;;;3.00;99.90;;;;;;6214538;23;20044;-83
2023/01/19 09:58:46;;;;;;;30.55;4.80;;;3.00;99.90;;;;;;6214198;23;20067;-83
2023/01/19 10:01:42;;;;;;;23.00;4.20;;;3.00;99.90;;;;;;6214713;23;20067;-83
2023/01/19 10:04:23;;;;;;;29.80;4.72;;;3.00;99.90;;;;;;6212168;23;20020;-82
2023/01/19 10:06:56;;;;;;;24.13;4.80;;;3.00;99.90;;;;;;6212741;23;20012;-83
2023/01/19 10:09:33;;;;;;;46.03;6.05;;;3.00;99.90;;;;;;6212749;23;20087;-83
2023/01/19 10:12:19;;;;;;;29.52;5.20;;;3.00;99.90;;;;;;6212747;23;20012;-83
2023/01/19 10:15:00;;;;;;;30.55;4.65;;;3.00;99.90;;;;;;6211779;23;20021;-83
2023/01/19 10:17:31;;;;;;;26.27;4.55;;;3.10;99.90;;;;;;6213974;23;20067;-83
2023/01/19 10:20:02;;;;;;;27.67;4.65;;;3.10;99.90;;;;;;6212642;23;20091;-83
2023/01/19 10:22:27;;;;;;;22.33;4.40;;;3.20;99.90;;;;;;6212481;23;20085;-83
2023/01/19 10:25:04;;;;;;;26.15;4.50;;;2.90;99.90;;;;;;6214494;23;20084;-82
2023/01/19 10:27:33;;;;;;;26.77;4.43;;;3.30;99.90;;;;;;6214109;23;20087;-83
2023/01/19 10:30:00;;;;;;;19.13;4.10;;;3.30;99.90;;;;;;6214350;23;20304;-83
2023/01/19 10:32:30;;;;;;;16.77;3.70;;;3.40;99.90;;;;;;6213737;23;20344;-83
2023/01/19 10:34:58;;;;;;;20.08;3.92;;;3.80;99.90;;;;;;6212351;23;20047;-83
2023/01/19 10:37:26;;;;;;;24.92;4.35;;;3.40;99.90;;;;;;6214281;23;20336;-83
2023/01/19 10:39:56;;;;;;;18.42;3.78;;;3.40;99.90;;;;;;6213892;23;20447;-82
2023/01/19 10:42:22;;;;;;;21.95;3.47;;;3.40;99.90;;;;;;6212061;23;20013;-83
2023/01/19 10:44:49;;;;;;;19.90;4.50;;;3.80;99.90;;;;;;6214209;23;20147;-83
2023/01/19 10:47:19;;;;;;;22.15;4.07;;;3.60;99.90;;;;;;6213608;23;20075;-83
2023/01/19 10:49:47;;;;;;;25.55;4.35;;;3.60;99.90;;;;;;6212302;23;20020;-82
2023/01/19 10:52:35;;;;;;;22.25;3.90;;;3.60;99.90;;;;;;6212372;23;20009;-83
2023/01/19 10:55:06;;;;;;;23.50;3.90;;;3.60;99.90;;;;;;6212139;23;20329;-83
2023/01/19 10:57:39;;;;;;;26.30;4.28;;;3.60;99.90;;;;;;6214157;23;20015;-83
2023/01/19 11:00:26;;;;;;;14.10;3.38;;;3.70;99.90;;;;;;6212644;23;20013;-83
2023/01/19 11:02:52;;;;;;;19.17;3.83;;;3.90;99.90;;;;;;6213434;23;20025;-82
2023/01/19 11:05:44;;;;;;;21.33;4.32;;;4.00;99.90;;;;;;6212030;23;20020;-83
2023/01/19 11:08:28;;;;;;;20.60;3.63;;;4.20;99.90;;;;;;6208082;23;20012;-84
2023/01/19 11:11:03;;;;;;;17.25;2.90;;;4.10;99.90;;;;;;6212077;23;20013;-83
2023/01/19 11:13:29;;;;;;;14.75;3.30;;;4.10;99.90;;;;;;6211938;23;20046;-83
2023/01/19 11:16:04;;;;;;;16.42;2.60;;;4.10;99.90;;;;;;6211486;23;20024;-83
2023/01/19 11:18:35;;;;;;;19.70;3.15;;;4.10;99.90;;;;;;6213898;23;20005;-83
2023/01/19 11:21:07;;;;;;;10.20;2.42;;;4.10;99.90;;;;;;6211964;23;20035;-83
2023/01/19 11:23:55;;;;;;;14.90;3.25;;;4.10;99.90;;;;;;6211798;23;20431;-84
2023/01/19 11:26:27;;;;;;;20.45;3.85;;;4.00;99.90;;;;;;6211856;23;20470;-83
2023/01/19 11:28:55;;;;;;;18.02;2.97;;;4.00;99.90;;;;;;6212194;23;20339;-83
2023/01/19 11:31:34;;;;;;;24.70;3.85;;;4.10;99.90;;;;;;6236534;23;20011;-82
2023/01/19 11:34:03;;;;;;;16.35;3.45;;;4.10;99.90;;;;;;6211958;23;20013;-82
2023/01/19 11:36:34;;;;;;;16.88;3.08;;;4.10;99.90;;;;;;6213968;23;20028;-83
2023/01/19 11:39:22;;;;;;;20.23;3.33;;;4.20;99.90;;;;;;6211894;23;20048;-83
2023/01/19 11:41:55;;;;;;;20.33;3.35;;;4.20;99.90;;;;;;6211623;23;20019;-83
2023/01/19 11:44:41;;;;;;;16.47;3.50;;;4.20;99.90;;;;;;6213216;23;20013;-83
2023/01/19 11:47:17;;;;;;;18.65;2.85;;;4.20;99.90;;;;;;6213170;23;20075;-82
2023/01/19 11:50:04;;;;;;;13.65;3.13;;;4.20;99.90;;;;;;6211371;23;20457;-83
2023/01/19 11:52:48;;;;;;;13.75;3.50;;;4.20;99.90;;;;;;6213534;23;20107;-83
2023/01/19 11:55:23;;;;;;;15.45;3.00;;;4.20;99.90;;;;;;6211777;23;20008;-83
2023/01/19 11:57:52;;;;;;;11.63;2.95;;;4.20;99.90;;;;;;6211872;23;20059;-83
2023/01/19 12:00:34;;;;;;;20.92;3.20;;;4.20;99.90;;;;;;6210973;23;20372;-83
2023/01/19 12:03:31;;;;;;;12.10;2.50;;;4.20;99.90;;;;;;6213197;23;20013;-83
2023/01/19 12:06:05;;;;;;;11.77;2.63;;;4.30;99.90;;;;;;6211531;23;20016;-83
2023/01/19 12:08:41;;;;;;;12.85;2.55;;;4.30;99.90;;;;;;6211632;23;20023;-82
2023/01/19 12:11:13;;;;;;;12.23;2.55;;;4.30;99.90;;;;;;6211459;23;20076;-83
2023/01/19 12:13:40;;;;;;;15.63;3.33;;;4.30;99.90;;;;;;6211153;23;20016;-82
2023/01/19 12:16:12;;;;;;;12.93;3.33;;;4.30;99.90;;;;;;6211275;23;20017;-82
2023/01/19 12:18:43;;;;;;;12.02;2.45;;;4.40;99.90;;;;;;6211357;23;20091;-83
2023/01/19 12:21:09;;;;;;;14.23;2.70;;;4.50;99.90;;;;;;6211361;23;20017;-83
2023/01/19 12:23:52;;;;;;;10.95;2.20;;;4.50;99.90;;;;;;6211409;23;20021;-83
2023/01/19 12:26:28;;;;;;;11.25;2.30;;;4.50;99.90;;;;;;6211514;23;20008;-82
2023/01/19 12:28:57;;;;;;;10.43;2.05;;;4.50;99.90;;;;;;6210856;23;20016;-83
2023/01/19 12:31:24;;;;;;;9.40;2.50;;;4.60;99.90;;;;;;6213341;23;20009;-83
2023/01/19 12:33:50;;;;;;;13.27;2.63;;;4.60;99.90;;;;;;6211298;23;20317;-82
2023/01/19 12:36:15;;;;;;;13.55;2.17;;;4.60;99.90;;;;;;6211203;23;20094;-83
2023/01/19 12:38:44;;;;;;;10.30;2.42;;;4.70;99.90;;;;;;6213121;23;20091;-82
2023/01/19 12:41:25;;;;;;;12.35;2.28;;;4.70;99.90;;;;;;6211177;23;20013;-83
2023/01/19 12:44:09;;;;;;;14.25;2.20;;;4.90;99.90;;;;;;6212171;23;20027;-83
2023/01/19 12:46:37;;;;;;;10.77;2.30;;;5.00;99.90;;;;;;6213328;23;20288;-83
2023/01/19 12:49:46;;;;;;;14.40;2.33;;;5.10;99.90;;;;;;6211299;23;20062;-83
2023/01/19 12:52:30;;;;;;;10.38;2.00;;;5.20;99.90;;;;;;6199266;23;20008;-83
2023/01/19 12:55:14;;;;;;;11.30;1.95;;;5.30;99.90;;;;;;6211147;23;20074;-83
2023/01/19 12:57:51;;;;;;;7.75;1.88;;;5.40;99.90;;;;;;6210581;23;20012;-83
2023/01/19 13:00:23;;;;;;;7.45;1.70;;;5.40;99.90;;;;;;6213525;23;20016;-83
2023/01/19 13:03:23;;;;;;;10.45;1.98;;;5.30;99.90;;;;;;6212895;23;20058;-83